Flight Track Log - Related Links

Times and Time Zones

All times are in EDT time to prevent confusion due to time zone crossing. See the TRS1804 flight status page for this flight to view local times or setup timezone preferences in your user account.

Time Position Orientation Groundspeed Altitude Reporting Facility
EDT Latitude Longitude Course Direction KTS MPH feet Rate Location/Type
Sun 08:17:26 AM 39.1333 -76.6333 171° South 182 209 2,400  Level Potomac TRACON
Sun 08:22:13 AM 38.8114 -76.5667 206° Southwest 322 371 14,000 2,300 Climbing Washington Center
Sun 08:23:13 AM 38.7150 -76.6267 208° Southwest 357 411 15,700 2,288 Climbing Washington Center
Sun 08:24:11 AM 38.6206 -76.6917 191° South 381 438 18,500 2,644 Climbing Washington Center
Sun 08:25:11 AM 38.5078 -76.7192 174° South 398 458 20,900 2,331 Climbing Washington Center
Sun 08:26:12 AM 38.3892 -76.7042 174° South 410 472 23,200 1,934 Climbing Washington Center
Sun 08:27:12 AM 38.2600 -76.6864 174° South 438 504 24,800 1,388 Climbing Washington Center
Sun 08:28:13 AM 38.1289 -76.6686 174° South 468 539 26,000 2,083 Climbing Washington Center
Sun 08:29:13 AM 38.0017 -76.6511 174° South 473 544 29,000 2,672 Climbing Washington Center
Sun 08:30:12 AM 37.8872 -76.6364 174° South 450 518 31,300 1,714 Climbing Washington Center
Sun 08:31:12 AM 37.7683 -76.6217 173° South 433 498 32,400 1,091 Climbing Washington Center
Sun 08:32:13 AM 37.6456 -76.6017 178° South 433 498 33,500 807 Climbing Washington Center
Sun 08:33:11 AM 37.5183 -76.5947 192° South 451 519 34,000 252 Climbing Washington Center
Sun 08:34:12 AM 37.3950 -76.6269 192° South 456 525 34,000  Level Washington Center
Sun 08:35:13 AM 37.2694 -76.6592 193° South 461 531 34,000  Level Washington Center
Sun 08:36:11 AM 37.1461 -76.6939 193° South 461 531 34,000  Level Washington Center
Sun 08:37:12 AM 37.0228 -76.7286 192° South 461 531 34,000  Level Washington Center
Sun 08:38:12 AM 36.8972 -76.7606 193° South 461 531 34,000  Level Washington Center
Sun 08:39:13 AM 36.7758 -76.7950 192° South 461 531 34,000 353 Level Washington Center
Sun 08:40:11 AM 36.6525 -76.8269 192° South 456 525 34,700 958 Climbing Washington Center
Sun 08:41:12 AM 36.5250 -76.8611 193° South 456 525 35,900 1,328 Climbing Washington Center
Sun 08:42:13 AM 36.3867 -76.9000 191° South 456 525 37,400 1,068 Climbing Washington Center
Sun 08:43:10 AM 36.2656 -76.9289 193° South 456 525 38,000 300 Climbing Washington Center
Sun 08:44:13 AM 36.1442 -76.9631 190° South 456 525 38,000  Level Washington Center
Sun 08:45:11 AM 36.0186 -76.9917 193° South 450 518 38,000  Level Washington Center
Sun 08:46:12 AM 35.8972 -77.0253 192° South 450 518 38,000  Level Washington Center
Sun 08:47:12 AM 35.7758 -77.0564 191° South 450 518 38,000  Level Washington Center
Sun 08:48:13 AM 35.6522 -77.0850 192° South 450 518 38,000  Level Washington Center
Sun 08:49:11 AM 35.5331 -77.1158 192° South 445 512 38,000  Level Washington Center
Sun 08:50:12 AM 35.4242 -77.1444 191° South 453 521 38,000  Level Washington Center
Sun 08:51:13 AM 35.3006 -77.1750 192° South 453 521 38,000  Level Washington Center
Sun 08:52:11 AM 35.1792 -77.2056 192° South 453 521 38,000  Level Washington Center
Sun 08:53:11 AM 35.0556 -77.2386 191° South 453 521 38,000  Level Washington Center
Sun 08:54:11 AM 34.9300 -77.2692 193° South 453 521 38,000  Level Washington Center
Sun 08:55:12 AM 34.8000 -77.3044 193° South 452 520 38,000  Level Washington Center
Sun 08:56:13 AM 34.6786 -77.3372 191° South 447 514 38,000  Level Washington Center
Sun 08:57:11 AM 34.5592 -77.3650 192° South 447 514 38,000  Level Washington Center
Sun 08:58:11 AM 34.4378 -77.3950 192° South 447 514 38,000  Level Washington Center
Sun 09:00:11 AM 34.1928 -77.4553 191° South 446 513 38,000  Level Jacksonville Center
Sun 09:01:11 AM 34.0731 -77.4828 190° South 446 513 38,000  Level Jacksonville Center
Sun 09:02:10 AM 33.9489 -77.5103 193° South 451 519 38,000  Level Jacksonville Center
Sun 09:03:10 AM 33.8417 -77.5394 191° South 443 510 38,000  Level Jacksonville Center
Sun 09:04:11 AM 33.7239 -77.5667 193° South 443 510 38,000  Level Jacksonville Center
Sun 09:05:11 AM 33.5919 -77.6019 192° South 449 517 38,000  Level Jacksonville Center
Sun 09:06:11 AM 33.4722 -77.6317 192° South 449 517 38,000  Level Jacksonville Center
Sun 09:07:11 AM 33.3669 -77.6578 191° South 443 510 38,000  Level Jacksonville Center
Sun 09:08:10 AM 33.2469 -77.6847 192° South 443 510 38,000  Level Jacksonville Center
Sun 09:09:10 AM 33.1272 -77.7164 191° South 443 510 38,000  Level Jacksonville Center
Sun 09:10:10 AM 33.0094 -77.7431 192° South 448 516 38,000  Level Jacksonville Center
Sun 09:13:10 AM 32.6497 -77.8300 192° South 443 510 38,000  Level Jacksonville Center
Sun 09:19:10 AM 31.9406 -78.0014 191° South 443 510 38,000  Level Jacksonville Center
Sun 09:21:10 AM 31.7025 -78.0556 191° South 448 516 38,000  Level Jacksonville Center
Sun 09:24:10 AM 31.3508 -78.1369 184° South 443 510 38,000  Level Jacksonville Center
Sun 09:35:13 AM 30.0339 -78.2408 154° Southeast 436 502 38,000  Level Miami Center
Sun 09:38:13 AM 29.7269 -78.0675 155° Southeast 437 503 38,000 91 Level Miami Center
Sun 09:46:13 AM 28.8436 -77.5883 156° South 438 504 39,000 111 Climbing Miami Center
Sun 09:47:13 AM 28.7311 -77.5308 155° Southeast 443 510 39,000  Level Miami Center
Sun 09:48:13 AM 28.6186 -77.4711 154° Southeast 442 509 39,000  Level Miami Center
Sun 09:49:13 AM 28.5144 -77.4139 156° South 429 494 39,000  Level Miami Center
Sun 09:50:13 AM 28.3958 -77.3542 153° Southeast 438 504 39,000  Level Miami Center
Sun 09:51:13 AM 28.2917 -77.2947 156° South 438 504 39,000  Level Miami Center
Sun 09:52:13 AM 28.1769 -77.2378 152° Southeast 444 511 39,000  Level Miami Center
Sun 09:53:13 AM 28.0539 -77.1644 160° South 438 504 39,000  Level Miami Center
Sun 09:54:13 AM 27.9411 -77.1172 152° Southeast 443 510 39,000  Level Miami Center
Sun 09:55:13 AM 27.8306 -77.0511 153° Southeast 443 510 39,000  Level Miami Center
Sun 09:56:13 AM 27.7158 -76.9853 154° Southeast 443 510 39,000  Level Miami Center
Sun 09:57:13 AM 27.6031 -76.9242 154° Southeast 443 510 39,000  Level Miami Center
Sun 09:58:13 AM 27.4883 -76.8608 156° South 448 516 39,000  Level Miami Center
Sun 09:59:13 AM 27.3756 -76.8047 155° Southeast 448 516 39,000  Level Miami Center
Sun 10:00:13 AM 27.2583 -76.7442 154° Southeast 460 529 39,000  Level Miami Center
Sun 10:01:13 AM 27.1392 -76.6789 155° Southeast 460 529 39,000  Level Miami Center
Sun 10:02:13 AM 27.0264 -76.6208 153° Southeast 460 529 39,000  Level Miami Center
Sun 10:03:13 AM 26.9072 -76.5533 155° Southeast 465 535 39,000  Level Miami Center
Sun 10:04:13 AM 26.7900 -76.4933 155° Southeast 465 535 39,000  Level Miami Center
Sun 10:05:13 AM 26.6750 -76.4331 156° South 459 528 39,000  Level Miami Center
Sun 10:06:13 AM 26.5619 -76.3778 154° Southeast 459 528 39,000  Level Miami Center
Sun 10:07:13 AM 26.4428 -76.3133 157° South 464 534 39,000  Level Miami Center
Sun 10:08:13 AM 26.3422 -76.2650 155° Southeast 458 527 39,000  Level Miami Center
Sun 10:09:13 AM 26.2208 -76.2008 155° Southeast 463 533 39,000  Level Miami Center
Sun 10:10:13 AM 26.1014 -76.1389 155° Southeast 463 533 39,000  Level Miami Center
Sun 10:11:13 AM 25.9861 -76.0797 155° Southeast 463 533 39,000  Level Miami Center
Sun 10:12:13 AM 25.8708 -76.0203 155° Southeast 463 533 39,000  Level Miami Center
Sun 10:13:13 AM 25.7472 -75.9567 156° South 468 539 39,000  Level Miami Center
Sun 10:14:13 AM 25.6256 -75.8953 154° Southeast 468 539 39,000  Level Miami Center
Sun 10:15:13 AM 25.5103 -75.8342 156° South 467 537 39,000  Level Miami Center
Sun 10:16:13 AM 25.3822 -75.7708 155° Southeast 476 548 39,000  Level Miami Center
Sun 10:17:13 AM 25.2689 -75.7119 156° South 476 548 39,000  Level Miami Center
Sun 10:18:13 AM 25.1369 -75.6467 156° South 464 534 39,000  Level Miami Center
Sun 10:19:13 AM 25.0192 -75.5883 153° Southeast 464 534 39,000  Level Miami Center
Sun 10:20:13 AM 24.8975 -75.5208 156° South 464 534 39,000  Level Miami Center
Sun 10:21:13 AM 24.7758 -75.4625 156° South 470 541 39,000  Level Miami Center
Sun 10:22:13 AM 24.6686 -75.4089 155° Southeast 470 541 39,000  Level Miami Center
Sun 10:23:13 AM 24.5469 -75.3464 156° South 470 541 39,000  Level Miami Center
Sun 10:24:13 AM 24.4250 -75.2864 155° Southeast 475 547 39,000  Level Miami Center
Sun 10:25:13 AM 24.3053 -75.2261 156° South 475 547 39,000  Level Miami Center
Sun 10:26:13 AM 24.1811 -75.1642 155° Southeast 481 554 39,000  Level Miami Center
Sun 10:27:13 AM 24.0572 -75.1019 157° South 481 554 39,000  Level Miami Center
Sun 10:28:13 AM 23.9353 -75.0447 155° Southeast 481 554 39,000  Level Miami Center
Sun 10:29:13 AM 23.8133 -74.9828 156° South 481 554 39,000  Level Miami Center
Sun 10:30:13 AM 23.6892 -74.9233 155° Southeast 481 554 39,000  Level Miami Center
Sun 10:31:13 AM 23.5672 -74.8619 155° Southeast 481 554 39,000  Level Miami Center
Sun 10:32:13 AM 23.4472 -74.8003 157° South 481 554 39,000  Level Miami Center
Sun 10:33:13 AM 23.3233 -74.7436 155° Southeast 481 554 39,000  Level Miami Center
Sun 10:34:13 AM 23.2011 -74.6822 156° South 481 554 39,000  Level Miami Center
Sun 10:35:13 AM 23.0792 -74.6233 156° South 481 554 39,000  Level Miami Center
Sun 10:36:13 AM 22.9592 -74.5644 156° South 475 547 39,000  Level Miami Center
Sun 10:37:13 AM 22.8372 -74.5058 155° Southeast 475 547 39,000  Level Miami Center
Sun 10:38:13 AM 22.7150 -74.4450 156° South 480 552 39,000  Level Miami Center
Sun 10:39:13 AM 22.5867 -74.3822 156° South 475 547 39,000  Level Miami Center
Sun 10:40:13 AM 22.4686 -74.3258 155° Southeast 469 540 39,000  Level Miami Center
Sun 10:41:13 AM 22.3508 -74.2675 157° South 469 540 39,000  Level Miami Center
Sun 10:42:13 AM 22.2308 -74.2117 156° South 469 540 39,000  Level Miami Center
Sun 10:43:13 AM 22.1128 -74.1558 156° South 464 534 39,000  Level Miami Center
Sun 10:44:13 AM 21.9947 -74.1000 156° South 464 534 39,000  Level Miami Center
Sun 10:45:13 AM 21.8747 -74.0419 155° Southeast 464 534 39,000  Level Miami Center
Sun 10:46:13 AM 21.7714 -73.9906 155° Southeast 464 534 39,000  Level Miami Center
Sun 10:47:13 AM 21.6514 -73.9306 155° Southeast 464 534 39,000  Level Miami Center
Sun 10:48:13 AM 21.5353 -73.8731 156° South 459 528 39,000  Level Miami Center
Sun 10:49:13 AM 21.4153 -73.8156 156° South 459 528 39,000  Level Miami Center
Sun 10:50:13 AM 21.2994 -73.7603 156° South 465 535 39,000  Level Miami Center
Sun 10:51:13 AM 21.1792 -73.7028 157° South 460 529 39,000  Level Miami Center
Sun 10:52:13 AM 21.0653 -73.6500 157° South 460 529 39,000  Level Miami Center
Sun 10:53:13 AM 20.9411 -73.5928 156° South 465 535 39,000  Level Miami Center
Sun 10:54:13 AM 20.8147 -73.5336 156° South 471 542 39,000  Level Miami Center
Sun 10:55:13 AM 20.6964 -73.4767 156° South 476 548 39,000  Level Miami Center
Sun 10:56:13 AM 20.5722 -73.4178 157° South 481 554 39,000  Level Miami Center
Sun 10:57:13 AM 20.4497 -73.3611 156° South 481 554 39,000  Level Miami Center
Sun 10:58:13 AM 20.3256 -73.3022 157° South 481 554 39,000  Level Miami Center
Sun 10:59:13 AM 20.2031 -73.2458 154° Southeast 481 554 39,000  Level Miami Center
Sun 11:00:13 AM 20.0808 -73.1828 151° Southeast 481 554 39,000  Level Miami Center
Sun 11:07:32 AM 19.2997 -72.7280 152° Southeast  Level FlightAware Approximate
Sun 11:08:32 AM 19.1922 -72.6671 152° Southeast  Level FlightAware Approximate
Sun 11:09:32 AM 19.0847 -72.6063 152° Southeast  Level FlightAware Approximate
Sun 11:10:32 AM 18.9772 -72.5455 152° Southeast  Level FlightAware Approximate
Sun 11:11:32 AM 18.8697 -72.4848 152° Southeast  Level FlightAware Approximate
Sun 11:12:32 AM 18.7621 -72.4242 152° Southeast  Level FlightAware Approximate
Sun 11:13:32 AM 18.6546 -72.3637 152° Southeast  Level FlightAware Approximate
Sun 11:14:32 AM 18.5470 -72.3032 152° Southeast  Level FlightAware Approximate
Sun 11:15:32 AM 18.4394 -72.2429 152° Southeast  Level FlightAware Approximate
Sun 11:16:32 AM 18.3318 -72.1826 152° Southeast  Level FlightAware Approximate
Sun 11:17:32 AM 18.2241 -72.1223 152° Southeast  Level FlightAware Approximate
Sun 11:18:32 AM 18.1165 -72.0622 152° Southeast  Level FlightAware Approximate
Sun 11:19:32 AM 18.0088 -72.0021 152° Southeast  Level FlightAware Approximate
Sun 11:20:32 AM 17.9011 -71.9421 152° Southeast  Level FlightAware Approximate
Sun 11:21:32 AM 17.7934 -71.8822 152° Southeast  Level FlightAware Approximate
Sun 11:22:32 AM 17.6856 -71.8223 152° Southeast  Level FlightAware Approximate
Sun 11:23:32 AM 17.5779 -71.7625 151° Southeast  Level FlightAware Approximate
Sun 11:24:32 AM 17.4713 -71.7006 158° South  Level FlightAware Approximate
Sun 11:25:32 AM 17.3582 -71.6530 158° South  Level FlightAware Approximate
Sun 11:26:32 AM 17.2450 -71.6054 158° South  Level FlightAware Approximate
Sun 11:27:32 AM 17.1319 -71.5580 158° South  Level FlightAware Approximate
Sun 11:28:32 AM 17.0187 -71.5105 158° South  Level FlightAware Approximate
Sun 11:29:32 AM 16.9056 -71.4632 158° South  Level FlightAware Approximate
Sun 11:30:32 AM 16.7924 -71.4159 158° South  Level FlightAware Approximate
Sun 11:31:32 AM 16.6792 -71.3686 158° South  Level FlightAware Approximate
Sun 11:32:32 AM 16.5660 -71.3214 158° South  Level FlightAware Approximate
Sun 11:33:32 AM 16.4528 -71.2743 158° South  Level FlightAware Approximate
Sun 11:34:32 AM 16.3396 -71.2272 159° South  Level FlightAware Approximate
Sun 11:35:32 AM 16.2257 -71.1821 159° South  Level FlightAware Approximate
Sun 11:36:32 AM 16.1118 -71.1369 159° South  Level FlightAware Approximate
Sun 11:37:32 AM 15.9978 -71.0919 162° South  Level FlightAware Approximate
Sun 11:38:32 AM 15.8819 -71.0528 162° South  Level FlightAware Approximate
Sun 11:39:32 AM 15.7659 -71.0138 162° South  Level FlightAware Approximate
Sun 11:40:32 AM 15.6499 -70.9749 162° South  Level FlightAware Approximate
Sun 11:41:32 AM 15.5339 -70.9360 162° South  Level FlightAware Approximate
Sun 11:42:32 AM 15.4179 -70.8971 162° South  Level FlightAware Approximate
Sun 11:43:32 AM 15.3020 -70.8583 162° South  Level FlightAware Approximate
Sun 11:44:32 AM 15.1859 -70.8195 162° South  Level FlightAware Approximate
Sun 11:45:32 AM 15.0699 -70.7807 162° South  Level FlightAware Approximate
Sun 11:46:32 AM 14.9539 -70.7421 162° South  Level FlightAware Approximate
Sun 11:47:32 AM 14.8379 -70.7034 162° South  Level FlightAware Approximate
Sun 11:48:32 AM 14.7219 -70.6648 162° South  Level FlightAware Approximate
Sun 11:49:32 AM 14.6058 -70.6262 162° South  Level FlightAware Approximate
Sun 11:50:32 AM 14.4898 -70.5877 162° South  Level FlightAware Approximate
Sun 11:51:32 AM 14.3737 -70.5492 162° South  Level FlightAware Approximate
Sun 11:52:32 AM 14.2577 -70.5107 162° South  Level FlightAware Approximate
Sun 11:53:32 AM 14.1416 -70.4723 162° South  Level FlightAware Approximate
Sun 11:54:32 AM 14.0255 -70.4340 162° South  Level FlightAware Approximate
Sun 11:55:32 AM 13.9094 -70.3956 162° South  Level FlightAware Approximate
Sun 11:56:32 AM 13.7934 -70.3574 162° South  Level FlightAware Approximate
Sun 11:57:32 AM 13.6773 -70.3191 162° South  Level FlightAware Approximate
Sun 11:58:32 AM 13.5612 -70.2809 162° South  Level FlightAware Approximate
Sun 11:59:32 AM 13.4642 -70.2490 162° South  Level FlightAware Approximate
Sun 12:00:32 PM 13.3671 -70.2171 162° South  Level FlightAware Approximate
Sun 12:01:32 PM 13.2701 -70.1852 162° South  Level FlightAware Approximate
Sun 12:02:32 PM 13.1730 -70.1534 162° South  Level FlightAware Approximate
Sun 12:03:32 PM 13.0760 -70.1216 162° South  Level FlightAware Approximate
Sun 12:04:32 PM 12.9789 -70.0898 162° South  Level FlightAware Approximate
Sun 12:05:32 PM 12.8819 -70.0580 162° South  Level FlightAware Approximate
Sun 12:06:32 PM 12.7848 -70.0263 162° South  Level FlightAware Approximate
Sun 12:07:32 PM 12.6878 -69.9946 142° Southeast  Level FlightAware Approximate
Sun 12:08:32 PM 12.6123 -69.9333 180° South  Level FlightAware Approximate
Sun 12:09:32 PM 12.5105 -69.9333 264° West  Level FlightAware Approximate
Sun 12:10:32 PM 12.4990 -70.0370 353° North  Level Estimated
Sun 12:11:32 PM 15.0085 -70.3580 171° South  Level FlightAware Approximate
Sun 12:12:32 PM 14.9080 -70.3408 171° South  Level FlightAware Approximate
Sun 12:13:32 PM 14.8075 -70.3236 171° South  Level FlightAware Approximate
Sun 12:14:32 PM 14.7070 -70.3065 171° South  Level FlightAware Approximate
Sun 12:15:32 PM 14.6065 -70.2893 171° South  Level FlightAware Approximate
Sun 12:16:32 PM 14.4922 -70.2698 171° South  Level FlightAware Approximate
Sun 12:17:32 PM 14.3779 -70.2504 171° South  Level FlightAware Approximate
Sun 12:18:32 PM 14.2636 -70.2309 171° South  Level FlightAware Approximate
Sun 12:19:32 PM 14.1493 -70.2115 171° South  Level FlightAware Approximate
Sun 12:20:32 PM 14.0350 -70.1921 171° South  Level FlightAware Approximate
Sun 12:21:32 PM 13.9207 -70.1727 171° South  Level FlightAware Approximate
Sun 12:22:32 PM 13.8064 -70.1534 171° South  Level FlightAware Approximate

Login

Don't have an account? Register now (free) for customized features, flight alerts, and more!